Weather at Syukuran Aminuddin Amir Airport

Public forecast

Using degrees Celsius for public forecast. Weather courtesy of forecast.io.

Closest aviation weather report (METAR) to Syukuran Aminuddin Amir Airport

Closest report is Sultan Aji Muhammad Sulaiman Sepinggan International Airport, 353.2 nm (654.1 km) W.

2024/07/24 06:30 (retrieved 46 minutes ago)

WALL 240630Z 21006KT 170V260 9999 SCT017 30/27 Q1007 NOSIG

Closest aviation forecast (TAF) to Syukuran Aminuddin Amir Airport

Closest forecast is Soroako Airport, 123.7 nm (229.0 km) SW.

2024/07/24 06:00 (retrieved 1 hour ago)

TAF WAWS 240500Z 2406/2418 09006KT 9000 SCT018